createdAt,value
2022-08-05T00:00:46.420Z,20.38
2022-08-05T00:03:18.584Z,20.36
2022-08-05T00:06:04.679Z,20.34
2022-08-05T00:08:36.957Z,20.31
2022-08-05T00:11:23.811Z,20.29
2022-08-05T00:13:56.210Z,20.27
2022-08-05T00:16:36.394Z,20.25
2022-08-05T00:19:13.568Z,20.22
2022-08-05T00:21:42.688Z,20.21
2022-08-05T00:24:15.977Z,20.18
2022-08-05T00:26:51.791Z,20.16
2022-08-05T00:29:22.635Z,20.11
2022-08-05T00:32:12.141Z,20.09
2022-08-05T00:35:03.689Z,20.06
2022-08-05T00:37:50.384Z,20.03
2022-08-05T00:40:27.149Z,20.00
2022-08-05T00:43:00.394Z,19.99
2022-08-05T00:45:38.467Z,19.97
2022-08-05T00:48:10.026Z,19.95
2022-08-05T00:50:41.239Z,19.92
2022-08-05T00:54:01.401Z,19.89
2022-08-05T00:55:59.334Z,19.85
2022-08-05T00:58:28.969Z,19.82
2022-08-05T01:00:57.343Z,19.78
2022-08-05T01:03:31.047Z,19.74
2022-08-05T01:06:02.614Z,19.70
2022-08-05T01:08:43.173Z,19.66
2022-08-05T01:11:22.380Z,19.61
2022-08-05T01:14:11.586Z,19.57
2022-08-05T01:17:02.723Z,19.52
2022-08-05T01:20:01.915Z,19.49
2022-08-05T01:22:37.732Z,19.46
2022-08-05T01:25:43.231Z,19.44
2022-08-05T01:28:27.539Z,19.41
2022-08-05T01:30:57.274Z,19.38
2022-08-05T01:33:38.503Z,19.35
2022-08-05T01:36:18.529Z,19.32
2022-08-05T01:38:53.448Z,19.30
2022-08-05T01:41:25.613Z,19.30
2022-08-05T01:43:55.882Z,19.28
2022-08-05T01:46:42.280Z,19.27
2022-08-05T01:49:23.315Z,19.25
2022-08-05T01:52:01.111Z,19.24
2022-08-05T01:54:46.173Z,19.22
2022-08-05T01:58:10.722Z,19.21
2022-08-05T02:00:12.029Z,19.20
2022-08-05T02:02:51.130Z,19.19
2022-08-05T02:05:28.605Z,19.16
2022-08-05T02:08:01.214Z,19.13
2022-08-05T02:10:39.909Z,19.10
2022-08-05T02:13:16.468Z,19.07
2022-08-05T02:15:51.025Z,19.04
2022-08-05T02:18:30.855Z,19.02
2022-08-05T02:21:05.766Z,18.99
2022-08-05T02:23:43.659Z,18.97
2022-08-05T02:26:21.798Z,18.96
2022-08-05T02:28:50.915Z,18.94
2022-08-05T02:31:23.267Z,18.93
2022-08-05T02:33:57.612Z,18.92
2022-08-05T02:36:31.571Z,18.91
2022-08-05T02:39:03.419Z,18.89
2022-08-05T02:41:43.319Z,18.86
2022-08-05T02:44:23.475Z,18.83
2022-08-05T02:46:58.864Z,18.81
2022-08-05T02:49:36.137Z,18.79
2022-08-05T02:52:09.341Z,18.76
2022-08-05T02:54:40.994Z,18.74
2022-08-05T02:58:12.114Z,18.73
2022-08-05T03:00:04.286Z,18.71
2022-08-05T03:02:37.121Z,18.69
2022-08-05T03:05:08.889Z,18.68
2022-08-05T03:07:56.592Z,18.67
2022-08-05T03:10:28.474Z,18.65
2022-08-05T03:15:24.869Z,18.62
2022-08-05T03:17:55.629Z,18.61
2022-08-05T03:20:25.140Z,18.59
2022-08-05T03:22:55.283Z,18.57
2022-08-05T03:25:33.241Z,18.56
2022-08-05T03:28:18.844Z,18.54
2022-08-05T03:30:57.398Z,18.53
2022-08-05T03:33:42.353Z,18.53
2022-08-05T03:36:29.807Z,18.53
2022-08-05T03:39:07.803Z,18.53
2022-08-05T03:41:45.391Z,18.53
2022-08-05T03:44:19.913Z,18.53
2022-08-05T03:46:50.326Z,18.53
2022-08-05T03:49:19.189Z,18.52
2022-08-05T03:52:36.559Z,18.53
2022-08-05T03:55:51.765Z,18.53
2022-08-05T03:57:42.376Z,18.55
2022-08-05T04:00:15.489Z,18.58
2022-08-05T04:02:58.718Z,18.61
2022-08-05T04:05:33.304Z,18.65
2022-08-05T04:08:05.788Z,18.69
2022-08-05T04:10:45.682Z,18.74
2022-08-05T04:13:18.458Z,18.81
2022-08-05T04:16:02.936Z,18.89
2022-08-05T04:18:34.395Z,18.98
2022-08-05T04:21:05.033Z,19.05
2022-08-05T04:24:04.884Z,19.16
2022-08-05T04:26:24.622Z,19.26
2022-08-05T04:28:53.460Z,19.37
2022-08-05T04:31:22.455Z,19.47
2022-08-05T04:34:31.997Z,19.57
2022-08-05T04:36:50.024Z,19.68
2022-08-05T04:39:19.679Z,19.77
2022-08-05T04:41:48.843Z,19.88
2022-08-05T04:44:30.082Z,19.99
2022-08-05T04:47:00.143Z,20.10
2022-08-05T04:50:02.582Z,20.19
2022-08-05T04:52:29.496Z,20.27
2022-08-05T04:55:14.371Z,20.34
2022-08-05T04:57:47.485Z,20.42
2022-08-05T05:00:23.485Z,20.51
2022-08-05T05:02:52.482Z,20.59
2022-08-05T05:05:28.270Z,20.67
2022-08-05T05:08:01.938Z,20.74
2022-08-05T05:10:33.584Z,20.82
2022-08-05T05:13:04.224Z,20.91
2022-08-05T05:15:57.135Z,21.01
2022-08-05T05:18:31.242Z,21.13
2022-08-05T05:21:03.211Z,21.24
2022-08-05T05:24:02.475Z,21.33
2022-08-05T05:26:28.887Z,21.44
2022-08-05T05:29:02.286Z,21.54
2022-08-05T05:34:02.393Z,21.72
2022-08-05T05:36:32.249Z,21.81
2022-08-05T05:39:04.339Z,21.91
2022-08-05T05:41:40.110Z,21.99
2022-08-05T05:44:35.744Z,22.07
2022-08-05T05:47:04.361Z,22.17
2022-08-05T05:49:33.723Z,22.26
2022-08-05T05:52:06.013Z,22.34
2022-08-05T05:54:51.314Z,22.43
2022-08-05T05:57:42.886Z,22.50
2022-08-05T06:00:31.365Z,22.58
2022-08-05T06:03:40.651Z,22.66
2022-08-05T06:06:01.965Z,22.76
2022-08-05T06:08:35.308Z,22.84
2022-08-05T06:11:10.288Z,22.94
2022-08-05T06:13:50.257Z,23.01
2022-08-05T06:16:30.335Z,23.10
2022-08-05T06:19:05.915Z,23.19
2022-08-05T06:21:38.509Z,23.27
2022-08-05T06:24:14.731Z,23.35
2022-08-05T06:26:52.192Z,23.44
2022-08-05T06:29:43.193Z,23.53
2022-08-05T06:32:21.081Z,23.62
2022-08-05T06:34:58.012Z,23.72
2022-08-05T06:37:56.945Z,23.79
2022-08-05T06:40:20.798Z,23.88
2022-08-05T06:42:51.924Z,23.96
2022-08-05T06:45:45.008Z,24.04
2022-08-05T06:48:44.395Z,24.13
2022-08-05T06:51:00.427Z,24.21
2022-08-05T06:53:29.448Z,24.30
2022-08-05T06:56:06.340Z,24.35
2022-08-05T06:58:54.977Z,24.42
2022-08-05T07:01:23.875Z,24.47
2022-08-05T07:04:02.982Z,24.52
2022-08-05T07:06:32.378Z,24.58
2022-08-05T07:09:03.735Z,24.62
2022-08-05T07:11:49.476Z,24.67
2022-08-05T07:14:46.979Z,24.75
2022-08-05T07:18:02.048Z,24.85
2022-08-05T07:20:33.409Z,24.94
2022-08-05T07:23:49.926Z,25.04
2022-08-05T07:26:25.676Z,25.15
2022-08-05T07:31:59.836Z,25.34
2022-08-05T07:34:42.008Z,25.44
2022-08-05T07:37:26.218Z,25.56
2022-08-05T07:40:27.027Z,25.68
2022-08-05T07:43:19.989Z,25.78
2022-08-05T07:45:56.979Z,25.84
2022-08-05T07:49:02.655Z,25.94
2022-08-05T07:56:04.938Z,26.22
2022-08-05T07:58:54.737Z,26.39
2022-08-05T08:01:57.598Z,26.55
2022-08-05T08:04:41.803Z,26.73
2022-08-05T08:07:27.328Z,26.85
2022-08-05T08:10:05.424Z,26.98
2022-08-05T08:12:49.297Z,27.10
2022-08-05T08:15:37.255Z,27.24
2022-08-05T08:18:20.849Z,27.40
2022-08-05T08:21:03.112Z,27.53
2022-08-05T08:24:02.127Z,27.68
2022-08-05T08:26:29.953Z,27.84
2022-08-05T08:29:45.522Z,27.96
2022-08-05T08:32:00.328Z,28.06
2022-08-05T08:34:33.197Z,28.11
2022-08-05T08:37:04.872Z,28.17
2022-08-05T08:45:16.413Z,28.47
2022-08-05T08:46:10.118Z,28.60
2022-08-05T08:49:06.279Z,28.71
2022-08-05T08:52:04.105Z,28.81
2022-08-05T08:54:27.294Z,28.93
2022-08-05T08:57:01.178Z,29.03
2022-08-05T08:59:33.600Z,29.16
2022-08-05T09:02:17.738Z,29.29
2022-08-05T09:05:16.253Z,29.41
2022-08-05T09:07:57.655Z,29.49
2022-08-05T09:10:30.429Z,29.60
2022-08-05T09:13:04.484Z,29.72
2022-08-05T09:15:36.832Z,29.83
2022-08-05T09:18:08.857Z,29.95
2022-08-05T09:20:42.653Z,29.98
2022-08-05T09:23:21.880Z,30.03
2022-08-05T09:26:09.251Z,30.16
2022-08-05T09:28:40.096Z,30.32
2022-08-05T09:31:22.593Z,30.45
2022-08-05T09:34:02.611Z,30.58
2022-08-05T09:36:54.132Z,30.65
2022-08-05T09:43:02.501Z,30.79
2022-08-05T09:46:07.238Z,30.91
2022-08-05T09:49:06.552Z,31.03
2022-08-05T09:51:55.390Z,31.19
2022-08-05T09:54:46.405Z,31.29
2022-08-05T09:57:29.385Z,31.40
2022-08-05T10:00:12.006Z,31.54
2022-08-05T10:02:47.122Z,31.69
2022-08-05T10:05:19.153Z,31.83
2022-08-05T10:08:35.462Z,31.99
2022-08-05T10:10:54.998Z,32.11
2022-08-05T10:13:46.312Z,32.16
2022-08-05T10:16:37.774Z,32.24
2022-08-05T10:19:23.821Z,32.40
2022-08-05T10:22:01.159Z,32.55
2022-08-05T10:24:34.283Z,32.72
2022-08-05T10:27:12.875Z,32.86
2022-08-05T10:30:41.096Z,32.92
2022-08-05T10:32:54.148Z,33.02
2022-08-05T10:35:43.954Z,33.10
2022-08-05T10:38:14.938Z,33.21
2022-08-05T10:40:52.122Z,33.35
2022-08-05T10:43:35.781Z,33.49
2022-08-05T10:46:07.179Z,33.58
2022-08-05T10:48:52.508Z,33.67
2022-08-05T10:51:29.128Z,33.76
2022-08-05T10:54:22.992Z,33.81
2022-08-05T10:56:55.573Z,33.82
2022-08-05T11:00:03.500Z,33.83
2022-08-05T11:02:37.638Z,33.86
2022-08-05T11:05:11.629Z,33.95
2022-08-05T11:08:01.295Z,34.09
2022-08-05T11:10:37.786Z,34.17
2022-08-05T11:13:55.027Z,34.28
2022-08-05T11:16:33.802Z,34.36
2022-08-05T11:20:11.466Z,34.35
2022-08-05T11:22:39.371Z,34.38
2022-08-05T11:26:04.584Z,34.47
2022-08-05T11:28:52.669Z,34.57
2022-08-05T11:31:58.537Z,34.63
2022-08-05T11:34:51.525Z,34.74
2022-08-05T11:38:29.003Z,34.79
2022-08-05T11:41:58.250Z,34.85
2022-08-05T11:44:40.150Z,34.89
2022-08-05T11:47:15.161Z,34.91
2022-08-05T11:49:49.611Z,34.91
2022-08-05T11:52:29.367Z,34.96
2022-08-05T11:55:07.730Z,35.14
2022-08-05T11:58:09.389Z,35.24
2022-08-05T12:00:58.559Z,35.41
2022-08-05T12:03:40.034Z,35.43
2022-08-05T12:06:11.367Z,35.34
2022-08-05T12:08:50.924Z,35.31
2022-08-05T12:11:28.335Z,35.31
2022-08-05T12:14:10.516Z,35.37
2022-08-05T12:16:45.406Z,35.52
2022-08-05T12:20:26.436Z,35.58
2022-08-05T12:22:26.461Z,35.61
2022-08-05T12:24:58.195Z,35.62
2022-08-05T12:27:33.051Z,35.68
2022-08-05T12:30:05.424Z,35.81
2022-08-05T12:32:35.435Z,35.92
2022-08-05T12:35:06.688Z,35.97
2022-08-05T12:37:37.097Z,35.98
2022-08-05T12:40:20.769Z,36.03
2022-08-05T12:42:57.840Z,36.17
2022-08-05T12:45:49.583Z,36.16
2022-08-05T12:48:32.398Z,36.10
2022-08-05T12:52:10.972Z,36.00
2022-08-05T12:54:23.399Z,35.96
2022-08-05T12:56:56.868Z,36.03
2022-08-05T13:00:09.005Z,36.12
2022-08-05T13:02:30.752Z,36.27
2022-08-05T13:05:01.004Z,36.41
2022-08-05T13:07:57.410Z,36.45
2022-08-05T13:10:23.766Z,36.29
2022-08-05T13:12:58.233Z,36.30
2022-08-05T13:15:42.203Z,36.33
2022-08-05T13:18:20.428Z,36.46
2022-08-05T13:20:52.200Z,36.62
2022-08-05T13:23:23.183Z,36.79
2022-08-05T13:25:59.372Z,36.82
2022-08-05T13:28:33.582Z,36.90
2022-08-05T13:31:14.443Z,36.96
2022-08-05T13:34:20.954Z,36.92
2022-08-05T13:36:39.689Z,36.92
2022-08-05T13:39:24.428Z,36.98
2022-08-05T13:42:00.321Z,36.94
2022-08-05T13:44:29.974Z,36.93
2022-08-05T13:47:04.513Z,37.02
2022-08-05T13:49:37.370Z,36.99
2022-08-05T13:52:16.059Z,36.90
2022-08-05T13:54:53.381Z,36.75
2022-08-05T13:57:23.151Z,36.60
2022-08-05T13:59:57.157Z,36.59
2022-08-05T14:02:29.930Z,36.75
2022-08-05T14:05:15.421Z,36.83
2022-08-05T14:08:00.725Z,36.82
2022-08-05T14:10:35.030Z,36.81
2022-08-05T14:13:03.615Z,36.83
2022-08-05T14:16:07.235Z,36.81
2022-08-05T14:18:23.315Z,36.79
2022-08-05T14:20:54.945Z,36.82
2022-08-05T14:23:26.038Z,36.94
2022-08-05T14:25:58.477Z,36.99
2022-08-05T14:28:29.093Z,37.03
2022-08-05T14:30:58.031Z,36.99
2022-08-05T14:33:59.106Z,36.95
2022-08-05T14:36:45.092Z,37.03
2022-08-05T14:39:18.047Z,37.01
2022-08-05T14:42:15.933Z,36.91
2022-08-05T14:44:42.971Z,36.77
2022-08-05T14:47:58.426Z,36.69
2022-08-05T14:50:14.231Z,36.61
2022-08-05T14:52:53.449Z,36.55
2022-08-05T14:55:39.637Z,36.50
2022-08-05T14:58:23.535Z,36.37
2022-08-05T15:01:47.980Z,36.31
2022-08-05T15:04:35.243Z,36.25
2022-08-05T15:08:08.642Z,36.18
2022-08-05T15:10:51.176Z,36.13
2022-08-05T15:13:50.366Z,36.18
2022-08-05T15:16:43.807Z,36.15
2022-08-05T15:23:09.340Z,36.07
2022-08-05T15:25:53.384Z,36.01
2022-08-05T15:28:33.166Z,35.97
2022-08-05T15:31:03.692Z,35.95
2022-08-05T15:34:05.941Z,35.89
2022-08-05T15:36:26.541Z,35.80
2022-08-05T15:40:41.604Z,35.82
2022-08-05T15:41:56.143Z,35.69
2022-08-05T15:44:30.691Z,35.60
2022-08-05T15:47:10.270Z,35.47
2022-08-05T15:49:58.801Z,35.37
2022-08-05T15:52:52.799Z,35.34
2022-08-05T15:55:25.158Z,35.27
2022-08-05T15:58:16.704Z,35.23
2022-08-05T16:00:57.135Z,35.27
2022-08-05T16:03:36.481Z,35.29
2022-08-05T16:06:11.342Z,35.17
2022-08-05T16:08:40.471Z,35.04
2022-08-05T16:11:10.392Z,34.93
2022-08-05T16:13:39.945Z,34.79
2022-08-05T16:16:15.900Z,34.73
2022-08-05T16:19:03.233Z,34.62
2022-08-05T16:21:58.928Z,34.56
2022-08-05T16:24:40.129Z,34.50
2022-08-05T16:27:16.101Z,34.44
2022-08-05T16:29:50.850Z,34.47
2022-08-05T16:32:23.452Z,34.47
2022-08-05T16:34:58.679Z,34.46
2022-08-05T16:38:15.171Z,34.46
2022-08-05T16:40:25.125Z,34.36
2022-08-05T16:43:00.437Z,34.23
2022-08-05T16:46:04.753Z,34.16
2022-08-05T16:48:33.405Z,34.01
2022-08-05T16:51:09.762Z,33.85
2022-08-05T16:54:02.811Z,33.72
2022-08-05T16:56:30.384Z,33.60
2022-08-05T16:59:00.980Z,33.53
2022-08-05T17:01:53.937Z,33.43
2022-08-05T17:04:26.441Z,33.26
2022-08-05T17:06:55.935Z,33.11
2022-08-05T17:09:27.392Z,32.95
2022-08-05T17:11:59.625Z,32.80
2022-08-05T17:14:37.663Z,32.63
2022-08-05T17:17:09.417Z,32.43
2022-08-05T17:19:45.986Z,32.21
2022-08-05T17:22:25.595Z,32.02
2022-08-05T17:24:58.773Z,31.83
2022-08-05T17:27:33.288Z,31.67
2022-08-05T17:30:03.300Z,31.53
2022-08-05T17:32:33.787Z,31.40
2022-08-05T17:35:03.388Z,31.27
2022-08-05T17:37:40.066Z,31.14
2022-08-05T17:40:13.559Z,31.02
2022-08-05T17:42:50.586Z,30.91
2022-08-05T17:45:22.152Z,30.81
2022-08-05T17:47:56.033Z,30.70
2022-08-05T17:50:28.587Z,30.61
2022-08-05T17:53:14.208Z,30.53
2022-08-05T17:55:43.568Z,30.43
2022-08-05T17:58:16.375Z,30.34
2022-08-05T18:00:51.140Z,30.25
2022-08-05T18:06:42.295Z,30.04
2022-08-05T18:10:00.480Z,29.90
2022-08-05T18:13:48.098Z,29.74
2022-08-05T18:17:59.553Z,29.60
2022-08-05T18:20:29.341Z,29.42
2022-08-05T18:23:11.408Z,29.30
2022-08-05T18:25:44.766Z,29.20
2022-08-05T18:28:21.859Z,29.10
2022-08-05T18:30:54.146Z,29.00
2022-08-05T18:33:46.678Z,28.90
2022-08-05T18:36:19.483Z,28.76
2022-08-05T18:38:50.402Z,28.64
2022-08-05T18:41:58.533Z,28.53
2022-08-05T18:44:14.619Z,28.41
2022-08-05T18:47:05.106Z,28.30
2022-08-05T18:49:58.211Z,28.21
2022-08-05T18:52:35.887Z,28.10
2022-08-05T18:55:10.963Z,28.01
2022-08-05T18:57:43.129Z,27.95
2022-08-05T19:00:20.393Z,27.87
2022-08-05T19:02:52.875Z,27.79
2022-08-05T19:06:13.218Z,27.72
2022-08-05T19:08:15.360Z,27.63
2022-08-05T19:10:50.680Z,27.55
2022-08-05T19:13:20.156Z,27.47
2022-08-05T19:16:00.236Z,27.39
2022-08-05T19:18:37.551Z,27.32
2022-08-05T19:21:13.442Z,27.27
2022-08-05T19:24:05.997Z,27.20
2022-08-05T19:26:34.509Z,27.16
2022-08-05T19:29:10.591Z,27.13
2022-08-05T19:31:50.990Z,27.10
2022-08-05T19:34:27.502Z,27.05
2022-08-05T19:37:02.495Z,27.02
2022-08-05T19:39:45.958Z,26.99
2022-08-05T19:42:36.058Z,26.96
2022-08-05T19:45:14.623Z,26.95
2022-08-05T19:47:44.762Z,26.92
2022-08-05T19:50:15.735Z,26.89
2022-08-05T19:52:47.627Z,26.88
2022-08-05T19:56:14.630Z,26.87
2022-08-05T19:58:28.797Z,26.84
2022-08-05T20:01:01.055Z,26.81
2022-08-05T20:03:42.195Z,26.79
2022-08-05T20:06:28.832Z,26.75
2022-08-05T20:09:13.739Z,26.71
2022-08-05T20:11:48.320Z,26.67
2022-08-05T20:14:27.151Z,26.62
2022-08-05T20:17:01.833Z,26.56
2022-08-05T20:19:36.182Z,26.51
2022-08-05T20:22:12.578Z,26.45
2022-08-05T20:24:41.475Z,26.41
2022-08-05T20:27:15.880Z,26.37
2022-08-05T20:29:57.436Z,26.33
2022-08-05T20:32:38.081Z,26.29
2022-08-05T20:35:26.427Z,26.23
2022-08-05T20:38:07.714Z,26.18
2022-08-05T20:40:37.595Z,26.12
2022-08-05T20:43:11.984Z,26.06
2022-08-05T20:45:55.953Z,26.01
2022-08-05T20:48:25.626Z,25.94
2022-08-05T20:50:54.485Z,25.88
2022-08-05T20:53:36.961Z,25.82
2022-08-05T20:56:09.871Z,25.76
2022-08-05T20:58:38.393Z,25.72
2022-08-05T21:01:07.128Z,25.67
2022-08-05T21:03:36.533Z,25.64
2022-08-05T21:06:27.792Z,25.57
2022-08-05T21:08:57.606Z,25.51
2022-08-05T21:12:09.747Z,25.47
2022-08-05T21:14:18.660Z,25.43
2022-08-05T21:16:47.266Z,25.38
2022-08-05T21:19:15.610Z,25.32
2022-08-05T21:21:51.005Z,25.28
2022-08-05T21:24:23.746Z,25.22
2022-08-05T21:26:57.928Z,25.17
2022-08-05T21:29:32.033Z,25.12
2022-08-05T21:32:05.786Z,25.07
2022-08-05T21:34:35.442Z,25.03
2022-08-05T21:37:08.360Z,24.99
2022-08-05T21:39:40.675Z,24.95
2022-08-05T21:42:30.729Z,24.90
2022-08-05T21:44:59.806Z,24.86
2022-08-05T21:47:56.698Z,24.82
2022-08-05T21:50:18.491Z,24.76
2022-08-05T21:52:48.326Z,24.72
2022-08-05T21:55:18.475Z,24.69
2022-08-05T21:58:10.546Z,24.64
2022-08-05T22:00:40.307Z,24.60
2022-08-05T22:03:14.202Z,24.56
2022-08-05T22:05:48.464Z,24.52
2022-08-05T22:08:22.193Z,24.48
2022-08-05T22:10:53.335Z,24.45
2022-08-05T22:14:34.437Z,24.42
2022-08-05T22:16:39.124Z,24.39
2022-08-05T22:19:00.040Z,24.35
2022-08-05T22:21:30.398Z,24.31
2022-08-05T22:24:40.259Z,24.27
2022-08-05T22:27:24.195Z,24.24
2022-08-05T22:30:14.563Z,24.19
2022-08-05T22:32:45.651Z,24.15
2022-08-05T22:35:14.631Z,24.11
2022-08-05T22:37:58.928Z,24.08
2022-08-05T22:40:28.262Z,24.03
2022-08-05T22:42:59.355Z,23.99
2022-08-05T22:45:28.141Z,23.96
2022-08-05T22:47:59.100Z,23.94
2022-08-05T22:50:27.745Z,23.91
2022-08-05T22:52:56.452Z,23.89
2022-08-05T22:55:26.072Z,23.86
2022-08-05T22:57:55.016Z,23.84
2022-08-05T23:00:23.964Z,23.81
2022-08-05T23:02:53.327Z,23.78
2022-08-05T23:05:22.586Z,23.76
2022-08-05T23:07:51.617Z,23.72
2022-08-05T23:10:23.840Z,23.68
2022-08-05T23:12:54.413Z,23.65
2022-08-05T23:15:29.650Z,23.62
2022-08-05T23:18:05.864Z,23.61
2022-08-05T23:20:40.025Z,23.59
2022-08-05T23:23:11.365Z,23.57
2022-08-05T23:25:50.962Z,23.56
2022-08-05T23:28:22.546Z,23.54
2022-08-05T23:30:53.435Z,23.51
2022-08-05T23:33:26.203Z,23.49
2022-08-05T23:36:13.575Z,23.46
2022-08-05T23:38:43.411Z,23.43
2022-08-05T23:41:12.828Z,23.40
2022-08-05T23:44:05.275Z,23.38
2022-08-05T23:46:29.836Z,23.37
2022-08-05T23:49:00.277Z,23.35
2022-08-05T23:51:52.495Z,23.33
2022-08-05T23:54:26.084Z,23.29
2022-08-05T23:57:03.156Z,23.25
